createdAt,value
2022-08-07T00:02:39.748Z,47.86
2022-08-07T00:05:13.532Z,47.53
2022-08-07T00:07:44.593Z,47.81
2022-08-07T00:10:25.968Z,48.17
2022-08-07T00:13:01.236Z,47.59
2022-08-07T00:15:37.941Z,48.16
2022-08-07T00:18:24.089Z,48.26
2022-08-07T00:21:55.397Z,47.93
2022-08-07T00:24:12.807Z,48.13
2022-08-07T00:26:49.268Z,48.15
2022-08-07T00:29:33.269Z,47.96
2022-08-07T00:32:08.557Z,48.29
2022-08-07T00:34:40.040Z,47.96
2022-08-07T00:37:12.361Z,48.02
2022-08-07T00:39:46.021Z,47.80
2022-08-07T00:42:29.155Z,48.20
2022-08-07T00:45:00.580Z,47.82
2022-08-07T00:48:07.603Z,48.24
2022-08-07T00:50:46.136Z,47.78
2022-08-07T00:53:21.621Z,47.75
2022-08-07T00:56:00.376Z,48.31
2022-08-07T00:58:33.081Z,48.51
2022-08-07T01:01:06.943Z,48.38
2022-08-07T01:03:54.771Z,48.15
2022-08-07T01:06:29.589Z,48.29
2022-08-07T01:09:04.923Z,47.64
2022-08-07T01:12:27.671Z,48.26
2022-08-07T01:14:28.342Z,47.69
2022-08-07T01:17:04.245Z,48.13
2022-08-07T01:19:54.243Z,47.88
2022-08-07T01:22:29.331Z,47.67
2022-08-07T01:25:02.537Z,47.66
2022-08-07T01:27:53.632Z,47.70
2022-08-07T01:30:27.381Z,48.20
2022-08-07T01:33:00.494Z,47.75
2022-08-07T01:35:52.876Z,48.05
2022-08-07T01:38:29.231Z,48.10
2022-08-07T01:41:03.615Z,48.01
2022-08-07T01:43:38.236Z,48.15
2022-08-07T01:46:12.335Z,47.50
2022-08-07T01:48:48.432Z,47.98
2022-08-07T01:52:02.766Z,47.98
2022-08-07T01:54:33.074Z,47.69
2022-08-07T01:57:20.685Z,47.45
2022-08-07T02:00:03.838Z,47.42
2022-08-07T02:03:19.334Z,47.39
2022-08-07T02:05:59.853Z,47.34
2022-08-07T02:08:36.210Z,47.92
2022-08-07T02:11:30.982Z,47.47
2022-08-07T02:14:05.310Z,47.63
2022-08-07T02:16:45.741Z,47.47
2022-08-07T02:20:04.526Z,47.32
2022-08-07T02:22:18.581Z,47.25
2022-08-07T02:25:00.794Z,47.92
2022-08-07T02:27:35.983Z,47.71
2022-08-07T02:30:13.832Z,47.58
2022-08-07T02:33:00.254Z,47.25
2022-08-07T02:36:30.174Z,47.25
2022-08-07T02:38:36.194Z,47.74
2022-08-07T02:41:10.740Z,47.78
2022-08-07T02:43:48.928Z,47.20
2022-08-07T02:46:23.377Z,47.38
2022-08-07T02:48:56.795Z,47.60
2022-08-07T02:51:42.522Z,47.27
2022-08-07T02:54:25.147Z,47.28
2022-08-07T02:56:59.066Z,47.62
2022-08-07T02:59:35.931Z,47.23
2022-08-07T03:02:09.266Z,47.20
2022-08-07T03:04:44.226Z,47.77
2022-08-07T03:07:18.975Z,47.56
2022-08-07T03:10:14.285Z,47.68
2022-08-07T03:12:47.749Z,47.96
2022-08-07T03:15:30.281Z,47.30
2022-08-07T03:18:20.267Z,47.78
2022-08-07T03:20:56.269Z,47.27
2022-08-07T03:23:33.815Z,47.12
2022-08-07T03:26:27.730Z,47.32
2022-08-07T03:29:03.313Z,47.26
2022-08-07T03:31:42.521Z,47.55
2022-08-07T03:34:18.162Z,47.51
2022-08-07T03:36:57.305Z,47.80
2022-08-07T03:39:59.298Z,47.52
2022-08-07T03:42:24.458Z,47.18
2022-08-07T03:44:58.208Z,47.86
2022-08-07T03:47:48.016Z,47.70
2022-08-07T03:50:25.776Z,47.72
2022-08-07T03:53:02.705Z,47.23
2022-08-07T03:55:52.814Z,47.73
2022-08-07T03:58:33.843Z,47.56
2022-08-07T04:01:10.984Z,47.13
2022-08-07T04:03:53.247Z,47.20
2022-08-07T04:06:38.400Z,47.36
2022-08-07T04:09:15.149Z,47.09
2022-08-07T04:12:23.805Z,47.06
2022-08-07T04:14:46.223Z,47.45
2022-08-07T04:17:21.795Z,47.14
2022-08-07T04:19:55.763Z,47.62
2022-08-07T04:22:29.655Z,46.89
2022-08-07T04:25:03.073Z,47.45
2022-08-07T04:27:44.335Z,46.85
2022-08-07T04:30:21.056Z,47.04
2022-08-07T04:33:15.521Z,47.04
2022-08-07T04:35:51.221Z,46.94
2022-08-07T04:38:24.806Z,47.40
2022-08-07T04:40:58.583Z,46.86
2022-08-07T04:44:10.306Z,46.69
2022-08-07T04:46:51.345Z,46.53
2022-08-07T04:49:57.882Z,46.68
2022-08-07T04:52:51.259Z,47.21
2022-08-07T04:58:12.862Z,46.56
2022-08-07T04:59:17.250Z,46.63
2022-08-07T05:01:42.513Z,46.51
2022-08-07T05:04:21.239Z,46.45
2022-08-07T05:07:19.467Z,46.77
2022-08-07T05:10:04.765Z,46.74
2022-08-07T05:12:52.850Z,46.44
2022-08-07T05:15:31.969Z,46.80
2022-08-07T05:18:10.425Z,47.12
2022-08-07T05:20:46.554Z,46.56
2022-08-07T05:23:30.188Z,47.01
2022-08-07T05:26:13.822Z,46.61
2022-08-07T05:28:54.119Z,46.50
2022-08-07T05:31:35.299Z,46.66
2022-08-07T05:34:12.825Z,46.33
2022-08-07T05:36:52.772Z,46.92
2022-08-07T05:40:13.629Z,46.82
2022-08-07T05:42:33.717Z,46.37
2022-08-07T05:45:26.042Z,46.49
2022-08-07T05:48:03.658Z,46.78
2022-08-07T05:50:39.621Z,46.25
2022-08-07T05:54:12.422Z,46.37
2022-08-07T05:56:15.663Z,46.55
2022-08-07T05:58:52.812Z,46.08
2022-08-07T06:01:26.079Z,46.75
2022-08-07T06:04:01.516Z,45.97
2022-08-07T06:06:35.018Z,46.30
2022-08-07T06:09:08.021Z,46.33
2022-08-07T06:11:40.166Z,46.63
2022-08-07T06:14:20.868Z,46.22
2022-08-07T06:16:55.908Z,46.41
2022-08-07T06:19:47.904Z,45.82
2022-08-07T06:22:27.260Z,45.91
2022-08-07T06:25:01.657Z,45.83
2022-08-07T06:28:00.074Z,45.94
2022-08-07T06:30:37.488Z,46.18
2022-08-07T06:33:16.102Z,46.52
2022-08-07T06:36:11.940Z,46.30
2022-08-07T06:38:39.405Z,45.97
2022-08-07T06:42:00.429Z,46.01
2022-08-07T06:44:24.156Z,46.43
2022-08-07T06:47:12.134Z,46.16
2022-08-07T06:49:51.127Z,45.91
2022-08-07T06:52:31.868Z,45.94
2022-08-07T06:55:33.102Z,45.50
2022-08-07T06:58:09.491Z,45.49
2022-08-07T07:00:45.861Z,45.40
2022-08-07T07:03:26.394Z,45.87
2022-08-07T07:06:11.896Z,45.72
2022-08-07T07:08:46.434Z,45.53
2022-08-07T07:12:09.130Z,45.59
2022-08-07T07:14:11.515Z,45.47
2022-08-07T07:16:50.739Z,45.51
2022-08-07T07:19:57.895Z,45.17
2022-08-07T07:22:34.112Z,45.83
2022-08-07T07:26:31.382Z,45.04
2022-08-07T07:28:42.571Z,45.46
2022-08-07T07:31:09.591Z,45.30
2022-08-07T07:33:54.892Z,45.00
2022-08-07T07:36:32.962Z,45.58
2022-08-07T07:39:06.933Z,45.67
2022-08-07T07:41:50.695Z,45.43
2022-08-07T07:44:37.863Z,44.97
2022-08-07T07:47:15.739Z,45.24
2022-08-07T07:50:33.644Z,45.03
2022-08-07T07:53:01.401Z,45.26
2022-08-07T07:55:37.514Z,45.14
2022-08-07T07:58:18.543Z,45.49
2022-08-07T08:00:55.237Z,44.96
2022-08-07T08:04:06.039Z,45.44
2022-08-07T08:06:21.008Z,44.75
2022-08-07T08:08:56.985Z,44.79
2022-08-07T08:11:59.987Z,45.11
2022-08-07T08:14:26.549Z,44.96
2022-08-07T08:17:56.707Z,45.11
2022-08-07T08:20:18.690Z,45.22
2022-08-07T08:23:08.398Z,44.65
2022-08-07T08:26:06.830Z,44.93
2022-08-07T08:28:45.114Z,44.44
2022-08-07T08:31:30.252Z,44.47
2022-08-07T08:34:26.674Z,44.40
2022-08-07T08:37:00.928Z,44.92
2022-08-07T08:39:39.874Z,44.78
2022-08-07T08:42:34.656Z,44.73
2022-08-07T08:45:26.721Z,44.26
2022-08-07T08:48:28.531Z,44.12
2022-08-07T08:51:14.830Z,44.16
2022-08-07T08:54:12.777Z,44.25
2022-08-07T08:56:50.575Z,44.15
2022-08-07T08:59:42.345Z,44.12
2022-08-07T09:02:38.294Z,44.17
2022-08-07T09:05:48.899Z,44.20
2022-08-07T09:08:40.872Z,44.15
2022-08-07T09:11:24.457Z,43.88
2022-08-07T09:14:13.634Z,43.90
2022-08-07T09:17:05.588Z,43.87
2022-08-07T09:19:59.126Z,44.11
2022-08-07T09:24:33.192Z,43.93
2022-08-07T09:26:12.060Z,43.77
2022-08-07T09:30:07.483Z,43.69
2022-08-07T09:32:17.140Z,44.21
2022-08-07T09:35:04.636Z,43.71
2022-08-07T09:38:10.337Z,44.01
2022-08-07T09:41:00.579Z,43.76
2022-08-07T09:44:05.952Z,43.99
2022-08-07T09:47:52.781Z,43.28
2022-08-07T09:50:18.496Z,43.76
2022-08-07T09:52:55.929Z,43.84
2022-08-07T09:56:04.486Z,43.64
2022-08-07T09:59:14.030Z,43.85
2022-08-07T10:02:29.612Z,43.24
2022-08-07T10:05:59.436Z,43.70
2022-08-07T10:09:07.241Z,43.45
2022-08-07T10:12:14.135Z,43.10
2022-08-07T10:15:29.504Z,43.05
2022-08-07T10:18:45.307Z,43.14
2022-08-07T10:22:16.333Z,43.48
2022-08-07T10:24:57.757Z,43.22
2022-08-07T10:27:56.423Z,43.24
2022-08-07T10:30:49.020Z,43.57
2022-08-07T10:34:06.199Z,43.33
2022-08-07T10:37:12.506Z,43.27
2022-08-07T10:40:09.850Z,43.22
2022-08-07T10:43:01.131Z,43.15
2022-08-07T10:45:45.453Z,43.18
2022-08-07T10:48:50.884Z,43.15
2022-08-07T10:51:57.480Z,43.30
2022-08-07T10:54:37.449Z,42.92
2022-08-07T10:57:34.434Z,42.82
2022-08-07T11:00:36.823Z,42.98
2022-08-07T11:03:17.409Z,43.30
2022-08-07T11:06:01.689Z,42.96
2022-08-07T11:08:52.449Z,42.94
2022-08-07T11:11:35.653Z,43.18
2022-08-07T11:14:46.521Z,43.17
2022-08-07T11:17:23.202Z,43.29
2022-08-07T11:20:05.034Z,42.83
2022-08-07T11:22:46.401Z,43.13
2022-08-07T11:25:36.229Z,43.01
2022-08-07T11:28:30.732Z,43.07
2022-08-07T11:31:13.644Z,42.84
2022-08-07T11:34:00.394Z,43.00
2022-08-07T11:36:57.548Z,43.02
2022-08-07T11:40:08.601Z,42.94
2022-08-07T11:42:59.059Z,43.07
2022-08-07T11:45:50.150Z,42.83
2022-08-07T11:49:51.369Z,42.79
2022-08-07T11:52:29.115Z,42.87
2022-08-07T11:56:25.715Z,43.08
2022-08-07T11:58:33.358Z,42.91
2022-08-07T12:01:59.963Z,43.13
2022-08-07T12:04:45.948Z,42.70
2022-08-07T12:07:38.896Z,42.93
2022-08-07T12:10:27.448Z,42.58
2022-08-07T12:13:11.597Z,42.76
2022-08-07T12:16:06.681Z,42.69
2022-08-07T12:18:52.014Z,42.89
2022-08-07T12:21:55.599Z,42.43
2022-08-07T12:25:07.575Z,42.79
2022-08-07T12:28:09.546Z,42.82
2022-08-07T12:30:46.934Z,42.06
2022-08-07T12:34:01.116Z,42.53
2022-08-07T12:36:33.155Z,42.67
2022-08-07T12:39:42.487Z,42.67
2022-08-07T12:42:08.781Z,42.53
2022-08-07T12:44:54.796Z,42.22
2022-08-07T12:47:46.482Z,42.18
2022-08-07T12:50:39.962Z,42.67
2022-08-07T12:53:27.585Z,42.26
2022-08-07T12:59:20.467Z,42.56
2022-08-07T13:02:33.239Z,42.94
2022-08-07T13:06:02.690Z,42.97
2022-08-07T13:10:20.184Z,42.30
2022-08-07T13:12:29.035Z,42.44
2022-08-07T13:15:23.448Z,42.74
2022-08-07T13:18:26.111Z,42.88
2022-08-07T13:21:13.974Z,42.37
2022-08-07T13:24:04.592Z,42.72
2022-08-07T13:26:46.377Z,42.39
2022-08-07T13:29:34.796Z,42.75
2022-08-07T13:32:23.732Z,42.33
2022-08-07T13:35:15.791Z,42.44
2022-08-07T13:38:01.362Z,42.79
2022-08-07T13:40:43.524Z,43.06
2022-08-07T13:43:18.798Z,43.15
2022-08-07T13:46:10.873Z,42.93
2022-08-07T13:48:59.453Z,42.83
2022-08-07T13:52:22.861Z,43.04
2022-08-07T13:54:34.670Z,42.88
2022-08-07T13:57:14.530Z,42.81
2022-08-07T13:59:58.180Z,42.74
2022-08-07T14:02:45.776Z,42.84
2022-08-07T14:05:37.335Z,42.51
2022-08-07T14:08:13.388Z,42.86
2022-08-07T14:10:46.112Z,42.68
2022-08-07T14:13:34.454Z,43.24
2022-08-07T14:16:10.352Z,43.35
2022-08-07T14:18:56.735Z,42.54
2022-08-07T14:22:04.027Z,43.03
2022-08-07T14:24:35.751Z,43.17
2022-08-07T14:28:09.386Z,43.33
2022-08-07T14:30:12.150Z,43.27
2022-08-07T14:32:48.475Z,43.27
2022-08-07T14:35:45.716Z,42.76
2022-08-07T14:38:30.840Z,43.12
2022-08-07T14:41:12.454Z,43.48
2022-08-07T14:43:59.336Z,42.92
2022-08-07T14:46:51.950Z,42.74
2022-08-07T14:52:36.171Z,42.83
2022-08-07T14:55:17.608Z,43.61
2022-08-07T14:57:58.478Z,43.02
2022-08-07T15:00:35.494Z,43.72
2022-08-07T15:06:04.642Z,43.35
2022-08-07T15:08:49.949Z,43.07
2022-08-07T15:11:53.805Z,43.75
2022-08-07T15:14:30.450Z,43.61
2022-08-07T15:17:13.276Z,43.25
2022-08-07T15:20:30.640Z,43.22
2022-08-07T15:22:53.793Z,43.83
2022-08-07T15:25:36.901Z,43.74
2022-08-07T15:28:34.962Z,43.89
2022-08-07T15:31:11.279Z,43.24
2022-08-07T15:33:47.333Z,43.58
2022-08-07T15:36:26.260Z,43.57
2022-08-07T15:39:16.685Z,43.59
2022-08-07T15:42:46.897Z,43.57
2022-08-07T15:45:00.642Z,43.67
2022-08-07T15:53:48.599Z,43.69
2022-08-07T15:56:33.326Z,44.13
2022-08-07T15:59:16.574Z,44.30
2022-08-07T16:02:02.415Z,43.83
2022-08-07T16:04:40.150Z,44.30
2022-08-07T16:08:32.814Z,43.62
2022-08-07T16:10:16.469Z,44.25
2022-08-07T16:13:17.857Z,43.73
2022-08-07T16:16:47.791Z,44.38
2022-08-07T16:19:43.051Z,43.83
2022-08-07T16:23:13.777Z,44.33
2022-08-07T16:26:14.674Z,43.77
2022-08-07T16:30:08.534Z,44.37
2022-08-07T16:32:34.773Z,44.52
2022-08-07T16:35:52.086Z,44.14
2022-08-07T16:39:01.549Z,44.41
2022-08-07T16:42:15.988Z,44.09
2022-08-07T16:45:14.730Z,44.01
2022-08-07T16:49:04.340Z,44.54
2022-08-07T16:51:54.645Z,44.24
2022-08-07T16:55:18.612Z,44.17
2022-08-07T16:58:04.282Z,44.08
2022-08-07T17:00:52.090Z,44.48
2022-08-07T17:04:00.126Z,44.59
2022-08-07T17:07:02.872Z,44.58
2022-08-07T17:10:06.913Z,44.19
2022-08-07T17:12:53.959Z,44.71
2022-08-07T17:15:44.122Z,44.11
2022-08-07T17:18:30.543Z,44.71
2022-08-07T17:21:04.217Z,44.21
2022-08-07T17:24:23.820Z,44.01
2022-08-07T17:27:05.308Z,44.53
2022-08-07T17:30:15.685Z,44.14
2022-08-07T17:34:09.614Z,44.55
2022-08-07T17:36:20.546Z,44.26
2022-08-07T17:39:10.557Z,44.51
2022-08-07T17:42:03.505Z,44.39
2022-08-07T17:44:50.544Z,44.73
2022-08-07T17:47:41.889Z,44.00
2022-08-07T17:50:21.066Z,44.19
2022-08-07T17:53:01.512Z,44.11
2022-08-07T17:56:01.064Z,44.18
2022-08-07T17:59:00.348Z,44.30
2022-08-07T18:01:48.665Z,44.55
2022-08-07T18:04:42.287Z,44.21
2022-08-07T18:07:34.272Z,44.71
2022-08-07T18:10:29.114Z,44.53
2022-08-07T18:13:30.918Z,44.74
2022-08-07T18:16:31.083Z,44.92
2022-08-07T18:21:08.441Z,44.37
2022-08-07T18:22:29.805Z,44.39
2022-08-07T18:25:23.999Z,44.27
2022-08-07T18:28:35.641Z,44.88
2022-08-07T18:31:21.386Z,44.30
2022-08-07T18:34:37.036Z,44.45
2022-08-07T18:38:57.524Z,45.00
2022-08-07T18:40:43.851Z,45.02
2022-08-07T18:43:48.913Z,45.00
2022-08-07T18:46:29.001Z,44.17
2022-08-07T18:50:19.122Z,44.82
2022-08-07T18:52:54.403Z,44.55
2022-08-07T18:55:57.188Z,44.82
2022-08-07T18:58:57.975Z,44.27
2022-08-07T19:02:17.944Z,44.35
2022-08-07T19:05:15.659Z,44.22
2022-08-07T19:08:03.928Z,44.82
2022-08-07T19:10:52.023Z,44.75
2022-08-07T19:13:29.878Z,44.69
2022-08-07T19:17:00.667Z,44.84
2022-08-07T19:19:06.787Z,44.82
2022-08-07T19:21:58.617Z,44.30
2022-08-07T19:24:47.908Z,44.71
2022-08-07T19:30:53.557Z,44.90
2022-08-07T19:31:04.229Z,44.38
2022-08-07T19:33:13.329Z,44.66
2022-08-07T19:35:57.180Z,44.79
2022-08-07T19:38:35.670Z,44.88
2022-08-07T19:41:39.158Z,44.44
2022-08-07T19:44:22.020Z,45.08
2022-08-07T19:47:05.822Z,45.11
2022-08-07T19:49:58.273Z,45.05
2022-08-07T19:52:34.748Z,44.93
2022-08-07T19:55:11.219Z,44.90
2022-08-07T19:58:02.037Z,44.79
2022-08-07T20:00:38.100Z,45.05
2022-08-07T20:03:33.755Z,44.54
2022-08-07T20:06:28.366Z,44.91
2022-08-07T20:09:03.809Z,44.85
2022-08-07T20:12:22.768Z,45.01
2022-08-07T20:14:54.078Z,44.41
2022-08-07T20:17:38.714Z,44.99
2022-08-07T20:20:14.720Z,44.78
2022-08-07T20:22:49.992Z,44.43
2022-08-07T20:25:25.520Z,45.12
2022-08-07T20:28:06.442Z,44.63
2022-08-07T20:30:46.911Z,44.47
2022-08-07T20:33:36.219Z,44.42
2022-08-07T20:36:13.233Z,44.62
2022-08-07T20:39:00.275Z,45.10
2022-08-07T20:41:40.799Z,45.06
2022-08-07T20:44:14.994Z,45.13
2022-08-07T20:47:05.450Z,45.18
2022-08-07T20:49:58.916Z,44.76
2022-08-07T20:52:51.431Z,45.15
2022-08-07T20:55:28.083Z,44.99
2022-08-07T20:58:09.078Z,45.20
2022-08-07T21:00:56.656Z,44.46
2022-08-07T21:03:30.938Z,44.46
2022-08-07T21:06:26.231Z,44.75
2022-08-07T21:09:13.666Z,44.67
2022-08-07T21:11:50.953Z,45.07
2022-08-07T21:14:34.264Z,45.23
2022-08-07T21:18:03.164Z,45.17
2022-08-07T21:20:09.839Z,45.25
2022-08-07T21:22:51.247Z,45.07
2022-08-07T21:25:39.145Z,44.49
2022-08-07T21:28:49.358Z,45.18
2022-08-07T21:31:49.933Z,44.67
2022-08-07T21:34:32.222Z,44.77
2022-08-07T21:37:13.493Z,44.64
2022-08-07T21:39:58.548Z,45.05
2022-08-07T21:42:48.353Z,44.70
2022-08-07T21:46:10.686Z,44.59
2022-08-07T21:48:35.443Z,44.75
2022-08-07T21:51:32.709Z,45.20
2022-08-07T21:54:23.180Z,44.66
2022-08-07T21:57:31.637Z,45.22
2022-08-07T22:00:22.834Z,44.73
2022-08-07T22:03:17.220Z,45.28
2022-08-07T22:06:00.653Z,45.20
2022-08-07T22:08:44.794Z,44.90
2022-08-07T22:11:20.655Z,45.53
2022-08-07T22:13:58.820Z,45.09
2022-08-07T22:16:46.804Z,45.13
2022-08-07T22:19:29.791Z,44.90
2022-08-07T22:22:28.933Z,44.90
2022-08-07T22:25:12.277Z,45.15
2022-08-07T22:28:07.753Z,45.12
2022-08-07T22:31:06.005Z,45.32
2022-08-07T22:33:57.691Z,45.40
2022-08-07T22:36:46.517Z,45.04
2022-08-07T22:39:35.209Z,45.15
2022-08-07T22:42:32.029Z,45.05
2022-08-07T22:45:21.805Z,45.50
2022-08-07T22:48:31.301Z,45.04
2022-08-07T22:51:49.048Z,44.94
2022-08-07T22:55:17.000Z,44.95
2022-08-07T22:58:37.757Z,45.15
2022-08-07T23:01:50.693Z,45.00
2022-08-07T23:06:10.262Z,45.61
2022-08-07T23:08:24.007Z,45.34
2022-08-07T23:11:17.835Z,45.53
2022-08-07T23:14:27.431Z,45.18
2022-08-07T23:17:33.806Z,45.12
2022-08-07T23:20:53.545Z,45.11
2022-08-07T23:24:04.128Z,45.66
2022-08-07T23:26:58.973Z,45.66
2022-08-07T23:30:37.466Z,45.60
2022-08-07T23:34:22.322Z,45.67
2022-08-07T23:36:39.657Z,45.67
2022-08-07T23:39:27.148Z,45.30
2022-08-07T23:42:23.199Z,45.67
2022-08-07T23:45:33.237Z,45.20
2022-08-07T23:49:03.540Z,45.40
2022-08-07T23:53:00.112Z,45.67
2022-08-07T23:54:52.157Z,44.99
2022-08-07T23:57:34.689Z,45.54
